createdAt,value
2022-08-19T00:01:31.366Z,20.77
2022-08-19T00:04:08.110Z,17.30
2022-08-19T00:06:36.846Z,20.25
2022-08-19T00:09:06.656Z,17.60
2022-08-19T00:11:35.900Z,19.33
2022-08-19T00:14:03.304Z,20.45
2022-08-19T00:16:30.830Z,19.73
2022-08-19T00:18:58.190Z,19.95
2022-08-19T00:21:29.951Z,23.50
2022-08-19T00:24:17.821Z,16.90
2022-08-19T00:26:46.698Z,17.80
2022-08-19T00:29:17.855Z,16.73
2022-08-19T00:31:46.685Z,19.70
2022-08-19T00:34:16.535Z,18.67
2022-08-19T00:36:44.331Z,21.90
2022-08-19T00:39:13.921Z,18.65
2022-08-19T00:41:41.956Z,16.83
2022-08-19T00:44:11.439Z,19.58
2022-08-19T00:46:41.065Z,18.77
2022-08-19T00:49:15.785Z,16.35
2022-08-19T00:51:45.946Z,17.27
2022-08-19T00:54:14.147Z,17.38
2022-08-19T00:56:45.908Z,18.70
2022-08-19T00:59:14.768Z,16.48
2022-08-19T01:02:08.596Z,13.40
2022-08-19T01:04:36.036Z,14.75
2022-08-19T01:07:03.684Z,16.27
2022-08-19T01:09:39.136Z,16.63
2022-08-19T01:12:06.668Z,14.85
2022-08-19T01:14:34.763Z,18.10
2022-08-19T01:17:05.367Z,17.67
2022-08-19T01:19:43.579Z,15.43
2022-08-19T01:22:14.347Z,14.57
2022-08-19T01:24:49.771Z,15.52
2022-08-19T01:27:18.316Z,14.25
2022-08-19T01:29:46.506Z,13.70
2022-08-19T01:32:32.360Z,15.05
2022-08-19T01:35:03.799Z,14.18
2022-08-19T01:37:32.519Z,12.85
2022-08-19T01:40:00.087Z,11.18
2022-08-19T01:42:30.413Z,12.65
2022-08-19T01:44:58.200Z,11.70
2022-08-19T01:47:25.490Z,12.23
2022-08-19T01:49:52.845Z,15.38
2022-08-19T01:52:20.560Z,12.35
2022-08-19T01:54:47.841Z,11.15
2022-08-19T01:57:15.713Z,14.30
2022-08-19T01:59:45.439Z,12.05
2022-08-19T02:02:15.770Z,12.70
2022-08-19T02:04:43.124Z,12.35
2022-08-19T02:07:10.459Z,12.73
2022-08-19T02:09:43.615Z,12.07
2022-08-19T02:12:11.526Z,12.65
2022-08-19T02:14:39.156Z,12.27
2022-08-19T02:20:10.299Z,12.57
2022-08-19T02:25:28.285Z,13.30
2022-08-19T02:27:57.683Z,11.05
2022-08-19T02:30:40.030Z,11.88
2022-08-19T02:33:08.245Z,12.13
2022-08-19T02:35:36.381Z,10.93
2022-08-19T02:38:25.591Z,11.98
2022-08-19T02:58:38.175Z,12.15
2022-08-19T03:01:06.148Z,10.68
2022-08-19T03:04:51.956Z,10.65
2022-08-19T03:16:29.449Z,10.52
2022-08-19T03:20:47.202Z,10.80
2022-08-19T03:29:02.620Z,8.95
2022-08-19T03:31:44.014Z,12.48
2022-08-19T03:59:39.724Z,12.38
2022-08-19T04:31:56.297Z,11.02
2022-08-19T04:35:01.512Z,10.07
2022-08-19T04:37:35.719Z,8.85
2022-08-19T04:40:26.213Z,9.77
2022-08-19T04:42:54.623Z,9.18
2022-08-19T04:45:22.904Z,10.10
2022-08-19T04:47:58.952Z,8.48
2022-08-19T04:50:42.155Z,8.50
2022-08-19T04:53:09.692Z,8.55
2022-08-19T04:55:41.319Z,8.27
2022-08-19T04:58:08.561Z,9.50
2022-08-19T05:00:39.803Z,9.48
2022-08-19T05:03:07.707Z,8.50
2022-08-19T05:05:44.452Z,8.35
2022-08-19T05:08:31.530Z,10.52
2022-08-19T05:10:59.010Z,6.95
2022-08-19T05:13:36.537Z,7.30
2022-08-19T05:16:03.967Z,7.20
2022-08-19T05:18:49.760Z,7.22
2022-08-19T05:21:37.350Z,7.20
2022-08-19T05:24:09.834Z,7.50
2022-08-19T05:26:42.913Z,7.60
2022-08-19T05:29:11.079Z,7.55
2022-08-19T05:31:39.489Z,8.00
2022-08-19T05:34:18.276Z,9.68
2022-08-19T05:36:47.688Z,8.65
2022-08-19T05:39:21.380Z,7.55
2022-08-19T05:41:51.702Z,7.20
2022-08-19T05:44:18.893Z,9.60
2022-08-19T05:46:48.902Z,9.25
2022-08-19T05:49:17.207Z,7.72
2022-08-19T05:51:44.322Z,6.53
2022-08-19T05:54:14.352Z,9.27
2022-08-19T05:56:43.233Z,8.60
2022-08-19T05:59:12.256Z,8.70
2022-08-19T06:01:42.418Z,7.68
2022-08-19T06:04:09.838Z,7.85
2022-08-19T06:06:37.799Z,7.05
2022-08-19T06:09:06.941Z,6.28
2022-08-19T06:11:37.101Z,8.82
2022-08-19T06:14:20.375Z,6.25
2022-08-19T06:16:55.137Z,5.97
2022-08-19T06:19:25.181Z,6.97
2022-08-19T06:21:54.066Z,7.97
2022-08-19T06:24:26.144Z,7.18
2022-08-19T06:26:59.185Z,6.20
2022-08-19T06:29:30.365Z,7.75
2022-08-19T06:31:59.864Z,7.38
2022-08-19T06:34:29.438Z,5.82
2022-08-19T06:36:58.507Z,7.28
2022-08-19T06:39:28.425Z,5.07
2022-08-19T06:41:58.940Z,5.63
2022-08-19T06:44:28.882Z,6.28
2022-08-19T06:46:57.845Z,5.95
2022-08-19T06:49:28.629Z,7.15
2022-08-19T06:51:57.801Z,5.18
2022-08-19T06:54:30.743Z,5.78
2022-08-19T06:57:05.136Z,6.22
2022-08-19T06:59:34.170Z,4.75
2022-08-19T07:02:08.239Z,5.88
2022-08-19T07:04:39.229Z,5.20
2022-08-19T07:07:21.059Z,4.70
2022-08-19T07:09:55.330Z,4.53
2022-08-19T07:12:32.352Z,6.25
2022-08-19T07:14:59.981Z,5.68
2022-08-19T07:17:29.823Z,6.15
2022-08-19T07:20:05.437Z,5.28
2022-08-19T07:22:35.280Z,5.32
2022-08-19T07:25:04.923Z,6.13
2022-08-19T07:27:33.506Z,5.93
2022-08-19T07:30:01.335Z,4.55
2022-08-19T07:32:34.461Z,5.40
2022-08-19T07:35:01.775Z,5.47
2022-08-19T07:37:33.183Z,6.53
2022-08-19T07:40:08.671Z,5.50
2022-08-19T07:42:35.931Z,4.20
2022-08-19T07:45:04.785Z,4.50
2022-08-19T07:47:47.459Z,4.93
2022-08-19T07:50:21.091Z,4.22
2022-08-19T07:52:50.739Z,4.03
2022-08-19T07:55:42.143Z,4.85
2022-08-19T07:58:09.875Z,6.75
2022-08-19T08:00:37.200Z,4.68
2022-08-19T08:03:04.541Z,4.60
2022-08-19T08:05:50.866Z,6.28
2022-08-19T08:08:55.340Z,4.10
2022-08-19T08:11:23.891Z,4.47
2022-08-19T08:14:29.112Z,3.67
2022-08-19T08:17:10.722Z,14.25
2022-08-19T08:19:38.852Z,4.55
2022-08-19T08:22:08.872Z,4.00
2022-08-19T08:24:36.989Z,3.53
2022-08-19T08:27:04.834Z,3.17
2022-08-19T08:29:42.089Z,3.35
2022-08-19T08:32:14.098Z,2.80
2022-08-19T08:34:43.145Z,3.83
2022-08-19T08:37:13.536Z,4.00
2022-08-19T08:39:58.095Z,4.30
2022-08-19T08:42:55.076Z,5.15
2022-08-19T08:45:42.420Z,3.30
2022-08-19T08:48:41.612Z,6.90
2022-08-19T08:51:15.229Z,4.03
2022-08-19T08:53:51.630Z,3.22
2022-08-19T08:56:24.115Z,3.90
2022-08-19T08:59:08.317Z,3.58
2022-08-19T09:01:37.144Z,4.57
2022-08-19T09:04:07.050Z,3.08
2022-08-19T09:06:52.863Z,3.97
2022-08-19T09:09:33.649Z,2.75
2022-08-19T09:12:26.919Z,3.95
2022-08-19T09:15:12.864Z,2.60
2022-08-19T09:17:40.202Z,3.20
2022-08-19T09:20:10.435Z,4.78
2022-08-19T09:22:39.446Z,3.35
2022-08-19T09:25:09.718Z,4.35
2022-08-19T09:27:42.840Z,3.30
2022-08-19T09:30:22.882Z,4.68
2022-08-19T09:32:53.425Z,4.78
2022-08-19T09:35:26.481Z,3.60
2022-08-19T09:38:13.817Z,2.92
2022-08-19T09:40:41.367Z,8.07
2022-08-19T09:43:13.053Z,5.57
2022-08-19T09:45:41.250Z,4.88
2022-08-19T09:48:11.669Z,3.60
2022-08-19T09:50:51.632Z,6.68
2022-08-19T09:53:20.250Z,4.18
2022-08-19T09:55:47.550Z,7.20
2022-08-19T09:58:14.717Z,3.72
2022-08-19T10:00:41.888Z,4.78
2022-08-19T10:03:09.216Z,6.45
2022-08-19T10:05:54.636Z,5.00
2022-08-19T10:08:41.146Z,3.70
2022-08-19T10:11:28.650Z,2.60
2022-08-19T10:14:11.125Z,5.32
2022-08-19T10:16:40.083Z,4.82
2022-08-19T10:19:07.381Z,2.78
2022-08-19T10:21:35.349Z,2.45
2022-08-19T10:24:06.319Z,3.03
2022-08-19T10:26:47.322Z,3.28
2022-08-19T10:29:31.821Z,4.70
2022-08-19T10:32:19.213Z,4.35
2022-08-19T10:35:01.601Z,4.57
2022-08-19T10:37:31.500Z,3.90
2022-08-19T10:39:59.864Z,3.40
2022-08-19T10:42:27.152Z,3.35
2022-08-19T10:44:54.308Z,3.95
2022-08-19T10:47:25.447Z,3.55
2022-08-19T10:50:13.859Z,2.92
2022-08-19T10:52:49.648Z,3.40
2022-08-19T10:55:41.380Z,2.47
2022-08-19T10:58:24.726Z,2.88
2022-08-19T11:00:59.847Z,4.75
2022-08-19T11:03:31.810Z,4.43
2022-08-19T11:06:01.351Z,3.55
2022-08-19T11:08:28.965Z,4.35
2022-08-19T11:10:58.644Z,2.25
2022-08-19T11:13:26.296Z,2.00
2022-08-19T11:16:08.225Z,3.42
2022-08-19T11:18:41.462Z,2.60
2022-08-19T11:21:15.563Z,5.28
2022-08-19T11:23:43.254Z,4.18
2022-08-19T11:26:11.095Z,2.38
2022-08-19T11:28:38.488Z,2.70
2022-08-19T11:31:10.775Z,4.68
2022-08-19T11:33:38.342Z,4.05
2022-08-19T11:36:06.251Z,4.53
2022-08-19T11:38:33.561Z,2.17
2022-08-19T11:41:03.433Z,3.42
2022-08-19T11:43:36.783Z,2.78
2022-08-19T11:46:33.450Z,2.72
2022-08-19T11:49:01.686Z,2.70
2022-08-19T11:51:29.634Z,2.00
2022-08-19T11:53:59.097Z,3.83
2022-08-19T11:56:27.775Z,3.45
2022-08-19T11:58:57.907Z,3.03
2022-08-19T12:01:27.014Z,2.72
2022-08-19T12:03:55.825Z,2.00
2022-08-19T12:06:33.174Z,2.78
2022-08-19T12:09:05.564Z,3.60
2022-08-19T12:11:34.509Z,2.00
2022-08-19T12:14:24.259Z,3.25
2022-08-19T12:17:10.817Z,3.33
2022-08-19T12:19:38.211Z,3.05
2022-08-19T12:22:07.085Z,3.50
2022-08-19T12:24:37.963Z,2.15
2022-08-19T12:27:05.432Z,3.40
2022-08-19T12:29:37.732Z,3.10
2022-08-19T12:32:07.257Z,2.72
2022-08-19T12:34:38.482Z,8.93
2022-08-19T12:37:07.142Z,3.80
2022-08-19T12:39:43.101Z,2.25
2022-08-19T12:42:14.065Z,2.72
2022-08-19T12:44:43.465Z,1.35
2022-08-19T12:47:14.747Z,2.78
2022-08-19T12:49:53.315Z,4.53
2022-08-19T12:52:28.337Z,2.10
2022-08-19T12:54:57.341Z,3.50
2022-08-19T12:57:32.553Z,12.40
2022-08-19T13:00:05.930Z,2.08
2022-08-19T13:02:39.067Z,3.97
2022-08-19T13:05:12.192Z,1.60
2022-08-19T13:07:41.225Z,1.90
2022-08-19T13:10:10.502Z,3.05
2022-08-19T13:12:37.835Z,1.63
2022-08-19T13:15:10.696Z,4.95
2022-08-19T13:17:39.745Z,2.35
2022-08-19T13:20:11.765Z,3.15
2022-08-19T13:22:39.541Z,2.42
2022-08-19T13:25:10.928Z,3.22
2022-08-19T13:27:38.778Z,1.30
2022-08-19T13:30:27.806Z,2.67
2022-08-19T13:33:15.564Z,1.40
2022-08-19T13:36:01.628Z,2.72
2022-08-19T13:38:31.799Z,1.40
2022-08-19T13:41:11.145Z,2.78
2022-08-19T13:43:41.023Z,3.28
2022-08-19T13:46:15.070Z,2.03
2022-08-19T13:48:43.171Z,4.30
2022-08-19T13:51:11.410Z,2.58
2022-08-19T13:53:40.721Z,1.70
2022-08-19T13:56:12.598Z,5.18
2022-08-19T13:58:40.803Z,4.47
2022-08-19T14:01:09.364Z,2.45
2022-08-19T14:03:37.352Z,1.80
2022-08-19T14:06:04.626Z,1.52
2022-08-19T14:08:33.329Z,2.42
2022-08-19T14:11:06.378Z,3.47
2022-08-19T14:13:35.079Z,1.40
2022-08-19T14:16:03.379Z,1.98
2022-08-19T14:18:30.968Z,1.70
2022-08-19T14:21:01.166Z,2.10
2022-08-19T14:23:29.248Z,3.53
2022-08-19T14:26:08.776Z,2.05
2022-08-19T14:28:36.208Z,3.05
2022-08-19T14:31:03.541Z,1.10
2022-08-19T14:33:33.938Z,1.50
2022-08-19T14:36:01.546Z,1.83
2022-08-19T14:38:32.382Z,1.58
2022-08-19T14:41:17.973Z,2.08
2022-08-19T14:43:47.475Z,2.53
2022-08-19T14:46:23.622Z,1.70
2022-08-19T14:48:52.861Z,2.78
2022-08-19T14:51:22.005Z,2.30
2022-08-19T14:53:49.948Z,1.95
2022-08-19T14:56:20.589Z,2.60
2022-08-19T14:58:49.836Z,1.20
2022-08-19T15:01:18.774Z,1.58
2022-08-19T15:03:45.993Z,1.23
2022-08-19T15:06:13.573Z,1.90
2022-08-19T15:08:44.037Z,1.85
2022-08-19T15:11:17.668Z,1.20
2022-08-19T15:13:47.562Z,1.15
2022-08-19T15:16:18.523Z,1.20
2022-08-19T15:18:50.767Z,4.75
2022-08-19T15:21:27.500Z,2.08
2022-08-19T15:23:57.626Z,2.67
2022-08-19T15:26:28.511Z,1.30
2022-08-19T15:28:55.757Z,2.83
2022-08-19T15:31:28.646Z,1.38
2022-08-19T15:33:59.404Z,1.80
2022-08-19T15:36:27.995Z,3.05
2022-08-19T15:38:58.568Z,4.00
2022-08-19T15:41:30.590Z,2.28
2022-08-19T15:47:51.549Z,3.38
2022-08-19T15:50:23.855Z,2.45
2022-08-19T15:52:54.245Z,4.38
2022-08-19T15:55:34.064Z,2.40
2022-08-19T15:58:29.282Z,3.05
2022-08-19T16:01:23.822Z,2.45
2022-08-19T16:04:14.903Z,2.78
2022-08-19T16:06:56.160Z,1.50
2022-08-19T16:09:28.857Z,1.70
2022-08-19T16:12:01.666Z,2.35
2022-08-19T16:14:49.280Z,2.63
2022-08-19T16:17:16.949Z,2.17
2022-08-19T16:20:05.775Z,2.08
2022-08-19T16:22:33.412Z,5.18
2022-08-19T16:25:01.544Z,3.60
2022-08-19T16:27:29.124Z,2.33
2022-08-19T16:29:58.927Z,3.08
2022-08-19T16:32:33.349Z,4.88
2022-08-19T16:35:06.917Z,2.63
2022-08-19T16:38:18.488Z,3.53
2022-08-19T16:40:53.898Z,2.42
2022-08-19T16:43:22.245Z,1.83
2022-08-19T16:45:53.152Z,6.53
2022-08-19T16:48:30.062Z,5.82
2022-08-19T16:51:18.426Z,2.70
2022-08-19T16:53:45.907Z,2.60
2022-08-19T16:56:13.496Z,3.83
2022-08-19T16:58:41.284Z,2.10
2022-08-19T17:01:10.668Z,1.95
2022-08-19T17:03:39.863Z,1.83
2022-08-19T17:06:20.902Z,1.98
2022-08-19T17:08:50.729Z,5.25
2022-08-19T17:11:19.763Z,2.78
2022-08-19T17:13:48.490Z,4.63
2022-08-19T17:16:25.066Z,1.60
2022-08-19T17:18:57.409Z,4.65
2022-08-19T17:21:28.420Z,2.25
2022-08-19T17:23:57.467Z,2.45
2022-08-19T17:26:25.644Z,3.25
2022-08-19T17:28:56.127Z,2.65
2022-08-19T17:31:25.291Z,1.30
2022-08-19T17:33:52.680Z,1.73
2022-08-19T17:36:25.981Z,1.38
2022-08-19T17:38:55.440Z,1.40
2022-08-19T17:41:24.490Z,1.88
2022-08-19T17:44:10.317Z,2.25
2022-08-19T17:46:37.620Z,1.80
2022-08-19T17:49:04.905Z,2.15
2022-08-19T17:51:40.943Z,1.85
2022-08-19T17:54:13.946Z,1.65
2022-08-19T17:56:41.899Z,3.03
2022-08-19T17:59:13.909Z,1.85
2022-08-19T18:01:52.373Z,1.75
2022-08-19T18:04:25.525Z,1.77
2022-08-19T18:06:55.402Z,2.08
2022-08-19T18:09:28.762Z,2.58
2022-08-19T18:12:07.551Z,2.25
2022-08-19T18:14:37.573Z,1.80
2022-08-19T18:17:10.888Z,1.80
2022-08-19T18:19:42.202Z,1.85
2022-08-19T18:22:28.870Z,1.50
2022-08-19T18:24:58.296Z,1.52
2022-08-19T18:27:27.864Z,2.63
2022-08-19T18:29:59.228Z,1.50
2022-08-19T18:32:34.832Z,2.10
2022-08-19T18:35:04.336Z,3.30
2022-08-19T18:37:31.544Z,3.33
2022-08-19T18:40:17.298Z,1.38
2022-08-19T18:43:04.163Z,1.75
2022-08-19T18:45:50.393Z,1.40
2022-08-19T18:48:36.110Z,2.03
2022-08-19T18:51:04.057Z,1.73
2022-08-19T18:53:34.343Z,2.20
2022-08-19T18:56:20.421Z,3.00
2022-08-19T18:58:47.694Z,1.77
2022-08-19T19:01:21.160Z,1.38
2022-08-19T19:03:50.992Z,4.72
2022-08-19T19:06:26.260Z,4.25
2022-08-19T19:08:55.889Z,1.70
2022-08-19T19:11:27.066Z,2.95
2022-08-19T19:13:54.450Z,1.45
2022-08-19T19:16:24.487Z,5.10
2022-08-19T19:18:52.867Z,2.28
2022-08-19T19:21:25.573Z,1.85
2022-08-19T19:23:54.839Z,1.75
2022-08-19T19:26:22.422Z,1.60
2022-08-19T19:28:51.431Z,2.40
2022-08-19T19:31:23.208Z,1.70
2022-08-19T19:33:50.673Z,1.70
2022-08-19T19:36:17.918Z,1.70
2022-08-19T19:38:48.684Z,3.55
2022-08-19T19:41:21.398Z,2.95
2022-08-19T19:43:59.870Z,2.50
2022-08-19T19:46:39.596Z,1.60
2022-08-19T19:49:07.105Z,3.25
2022-08-19T19:51:37.666Z,1.42
2022-08-19T19:54:07.365Z,1.83
2022-08-19T19:56:35.346Z,3.17
2022-08-19T19:59:05.102Z,2.80
2022-08-19T20:01:32.448Z,2.28
2022-08-19T20:04:01.612Z,2.72
2022-08-19T20:06:29.193Z,1.70
2022-08-19T20:09:08.348Z,2.58
2022-08-19T20:11:37.110Z,1.85
2022-08-19T20:14:16.325Z,3.85
2022-08-19T20:16:53.396Z,2.17
2022-08-19T20:19:41.998Z,2.75
2022-08-19T20:22:39.846Z,2.47
2022-08-19T20:25:15.459Z,2.47
2022-08-19T20:28:16.250Z,2.22
2022-08-19T20:30:58.709Z,1.90
2022-08-19T20:33:45.906Z,1.70
2022-08-19T20:36:18.894Z,1.70
2022-08-19T20:39:00.988Z,2.30
2022-08-19T20:41:39.040Z,2.10
2022-08-19T20:44:12.412Z,2.30
2022-08-19T20:53:15.868Z,1.70
2022-08-19T21:19:44.523Z,1.70
2022-08-19T21:22:21.024Z,2.20
2022-08-19T21:24:51.972Z,1.90
2022-08-19T21:31:29.689Z,2.85
2022-08-19T21:39:40.409Z,2.00
2022-08-19T21:42:08.013Z,1.88
2022-08-19T21:45:10.618Z,2.38
2022-08-19T21:47:38.073Z,2.97
2022-08-19T21:50:06.884Z,2.08
2022-08-19T21:52:34.458Z,2.03
2022-08-19T21:55:01.980Z,4.20
2022-08-19T21:57:32.212Z,2.63
2022-08-19T21:59:59.786Z,3.47
2022-08-19T22:02:31.849Z,2.00
2022-08-19T22:04:59.226Z,1.60
2022-08-19T22:07:26.592Z,2.28
2022-08-19T22:09:54.024Z,1.80
2022-08-19T22:12:30.441Z,1.65
2022-08-19T22:14:58.885Z,2.15
2022-08-19T22:30:44.986Z,1.88
2022-08-19T22:52:25.982Z,1.70
2022-08-19T22:56:02.047Z,1.63
